createdAt,value
2022-08-22T00:00:59.172Z,18.60
2022-08-22T00:02:54.491Z,19.70
2022-08-22T00:03:01.016Z,21.40
2022-08-22T00:03:01.249Z,21.40
2022-08-22T00:03:01.688Z,20.70
2022-08-22T00:03:03.074Z,20.20
2022-08-22T00:03:08.439Z,21.30
2022-08-22T00:03:42.261Z,18.60
2022-08-22T00:06:18.997Z,18.60
2022-08-22T00:08:58.174Z,18.60
2022-08-22T00:11:37.268Z,18.60
2022-08-22T00:14:12.435Z,18.60
2022-08-22T00:16:48.082Z,18.60
2022-08-22T00:19:26.610Z,18.60
2022-08-22T00:22:01.399Z,18.50
2022-08-22T00:24:34.417Z,18.50
2022-08-22T00:27:05.060Z,18.50
2022-08-22T00:29:43.943Z,18.40
2022-08-22T00:32:20.123Z,18.40
2022-08-22T00:34:56.682Z,18.40
2022-08-22T00:37:31.847Z,18.40
2022-08-22T00:40:10.459Z,18.40
2022-08-22T00:43:01.924Z,18.40
2022-08-22T00:45:59.366Z,18.40
2022-08-22T00:49:03.947Z,18.40
2022-08-22T00:52:08.717Z,18.30
2022-08-22T00:54:54.723Z,18.30
2022-08-22T00:57:36.432Z,18.30
2022-08-22T01:00:13.200Z,18.30
2022-08-22T01:03:01.729Z,18.20
2022-08-22T01:05:52.277Z,18.20
2022-08-22T01:08:37.721Z,18.20
2022-08-22T01:11:23.674Z,18.20
2022-08-22T01:14:12.229Z,18.10
2022-08-22T01:17:12.228Z,18.10
2022-08-22T01:20:27.980Z,18.10
2022-08-22T01:23:31.024Z,18.10
2022-08-22T01:26:35.384Z,18.10
2022-08-22T01:29:41.722Z,18.10
2022-08-22T01:32:47.771Z,18.10
2022-08-22T01:35:54.795Z,18.00
2022-08-22T01:38:52.978Z,18.10
2022-08-22T01:41:58.307Z,18.00
2022-08-22T01:44:45.268Z,18.10
2022-08-22T01:47:16.099Z,18.00
2022-08-22T01:49:49.754Z,18.00
2022-08-22T01:52:31.207Z,18.00
2022-08-22T01:55:07.716Z,18.00
2022-08-22T01:57:50.973Z,18.00
2022-08-22T02:00:34.623Z,18.10
2022-08-22T02:03:18.648Z,18.10
2022-08-22T02:05:53.616Z,18.10
2022-08-22T02:08:32.683Z,18.20
2022-08-22T02:11:06.004Z,18.10
2022-08-22T02:13:53.391Z,18.10
2022-08-22T02:16:27.400Z,18.10
2022-08-22T02:19:09.355Z,18.10
2022-08-22T02:21:45.442Z,18.10
2022-08-22T02:24:24.572Z,18.10
2022-08-22T02:27:07.855Z,18.10
2022-08-22T02:29:42.735Z,18.10
2022-08-22T02:32:21.005Z,18.10
2022-08-22T02:34:59.682Z,18.00
2022-08-22T02:37:36.751Z,18.10
2022-08-22T02:40:13.497Z,18.10
2022-08-22T02:42:51.304Z,18.20
2022-08-22T02:49:16.315Z,18.00
2022-08-22T02:51:53.039Z,17.90
2022-08-22T02:54:28.880Z,17.90
2022-08-22T02:57:03.537Z,17.90
2022-08-22T02:59:38.038Z,17.90
2022-08-22T03:07:44.932Z,17.90
2022-08-22T03:10:21.877Z,17.80
2022-08-22T03:13:02.021Z,17.80
2022-08-22T03:15:38.400Z,17.80
2022-08-22T03:18:17.100Z,17.80
2022-08-22T03:20:50.480Z,17.70
2022-08-22T03:23:27.101Z,17.70
2022-08-22T03:26:07.490Z,17.70
2022-08-22T03:28:59.283Z,17.70
2022-08-22T03:31:32.123Z,17.60
2022-08-22T03:34:22.546Z,17.60
2022-08-22T03:37:03.575Z,17.60
2022-08-22T03:39:48.938Z,17.60
2022-08-22T03:42:40.865Z,17.60
2022-08-22T03:45:23.003Z,17.60
2022-08-22T03:48:19.397Z,17.60
2022-08-22T03:51:21.403Z,17.60
2022-08-22T03:54:17.978Z,17.50
2022-08-22T03:57:13.620Z,17.50
2022-08-22T04:00:04.183Z,17.50
2022-08-22T04:03:20.183Z,17.50
2022-08-22T04:06:16.778Z,17.50
2022-08-22T04:09:10.602Z,17.50
2022-08-22T04:12:17.618Z,17.50
2022-08-22T04:15:11.720Z,17.50
2022-08-22T04:18:02.064Z,17.40
2022-08-22T04:21:06.740Z,17.40
2022-08-22T04:23:59.600Z,17.40
2022-08-22T04:26:37.826Z,17.30
2022-08-22T04:29:11.488Z,17.40
2022-08-22T04:31:46.231Z,17.30
2022-08-22T04:34:22.512Z,17.30
2022-08-22T04:36:57.946Z,17.30
2022-08-22T04:43:42.296Z,17.30
2022-08-22T04:46:16.417Z,17.30
2022-08-22T04:48:51.785Z,17.40
2022-08-22T04:51:26.057Z,17.40
2022-08-22T04:54:25.291Z,17.30
2022-08-22T04:57:10.301Z,17.30
2022-08-22T04:59:40.403Z,17.30
2022-08-22T05:02:11.199Z,17.30
2022-08-22T05:04:42.943Z,17.40
2022-08-22T05:07:15.578Z,17.40
2022-08-22T05:09:48.384Z,17.40
2022-08-22T05:12:21.959Z,17.50
2022-08-22T05:14:54.999Z,17.50
2022-08-22T05:17:26.568Z,17.50
2022-08-22T05:19:57.953Z,17.50
2022-08-22T05:22:30.799Z,17.50
2022-08-22T05:25:03.826Z,17.60
2022-08-22T05:27:36.860Z,17.50
2022-08-22T05:30:11.912Z,17.60
2022-08-22T05:32:49.974Z,17.60
2022-08-22T05:35:19.507Z,17.60
2022-08-22T05:37:49.899Z,17.70
2022-08-22T05:40:24.542Z,17.70
2022-08-22T05:42:54.529Z,17.70
2022-08-22T05:45:26.443Z,17.70
2022-08-22T05:48:03.233Z,17.80
2022-08-22T05:50:38.063Z,17.90
2022-08-22T05:53:10.096Z,17.90
2022-08-22T05:55:48.161Z,17.90
2022-08-22T05:58:31.744Z,18.00
2022-08-22T06:01:10.274Z,17.90
2022-08-22T06:03:42.962Z,17.90
2022-08-22T06:06:19.377Z,18.00
2022-08-22T06:08:56.362Z,18.10
2022-08-22T06:11:33.678Z,18.10
2022-08-22T06:14:14.197Z,18.20
2022-08-22T06:16:49.612Z,18.30
2022-08-22T06:19:20.205Z,18.50
2022-08-22T06:21:51.771Z,18.60
2022-08-22T06:24:24.864Z,18.60
2022-08-22T06:26:58.199Z,18.60
2022-08-22T06:29:34.494Z,18.60
2022-08-22T06:32:13.238Z,18.60
2022-08-22T06:34:44.084Z,18.70
2022-08-22T06:37:18.802Z,18.80
2022-08-22T06:39:50.223Z,18.80
2022-08-22T06:42:22.774Z,18.90
2022-08-22T06:44:53.835Z,18.90
2022-08-22T06:47:26.377Z,19.10
2022-08-22T06:49:58.299Z,19.20
2022-08-22T06:52:29.656Z,19.10
2022-08-22T06:55:01.322Z,19.10
2022-08-22T06:57:34.717Z,19.30
2022-08-22T07:00:07.522Z,19.20
2022-08-22T07:02:41.517Z,19.20
2022-08-22T07:05:16.491Z,19.30
2022-08-22T07:07:44.793Z,19.60
2022-08-22T07:10:14.824Z,19.70
2022-08-22T07:12:47.328Z,19.70
2022-08-22T07:15:34.464Z,19.70
2022-08-22T07:18:08.030Z,20.20
2022-08-22T07:20:38.670Z,20.50
2022-08-22T07:23:09.976Z,20.50
2022-08-22T07:25:50.244Z,20.50
2022-08-22T07:28:36.862Z,20.40
2022-08-22T07:31:31.816Z,20.40
2022-08-22T07:34:14.836Z,20.50
2022-08-22T07:36:48.863Z,20.80
2022-08-22T07:39:24.952Z,20.50
2022-08-22T07:42:04.444Z,20.60
2022-08-22T07:44:38.550Z,20.80
2022-08-22T07:47:09.998Z,21.20
2022-08-22T07:49:49.582Z,21.60
2022-08-22T07:52:18.767Z,21.60
2022-08-22T07:54:51.145Z,21.60
2022-08-22T07:57:25.597Z,22.20
2022-08-22T07:59:57.204Z,22.60
2022-08-22T08:02:26.394Z,22.40
2022-08-22T08:04:58.786Z,22.10
2022-08-22T08:07:29.278Z,22.30
2022-08-22T08:10:02.742Z,22.30
2022-08-22T08:12:34.399Z,22.20
2022-08-22T08:15:04.806Z,22.10
2022-08-22T08:17:36.352Z,21.90
2022-08-22T08:20:10.612Z,22.00
2022-08-22T08:22:39.610Z,22.20
2022-08-22T08:25:09.805Z,22.00
2022-08-22T08:27:57.936Z,21.90
2022-08-22T08:30:37.614Z,22.60
2022-08-22T08:33:24.108Z,22.40
2022-08-22T08:36:04.451Z,22.80
2022-08-22T08:38:38.404Z,23.20
2022-08-22T08:41:40.400Z,23.20
2022-08-22T08:44:21.502Z,23.30
2022-08-22T08:47:25.284Z,25.20
2022-08-22T08:50:22.352Z,27.80
2022-08-22T08:53:17.867Z,28.50
2022-08-22T08:55:52.243Z,27.60
2022-08-22T08:58:38.922Z,27.80
2022-08-22T09:01:33.839Z,28.20
2022-08-22T09:04:37.647Z,28.90
2022-08-22T09:07:39.796Z,29.60
2022-08-22T09:10:29.434Z,29.30
2022-08-22T09:13:24.707Z,28.30
2022-08-22T09:16:09.235Z,28.10
2022-08-22T09:19:08.150Z,27.90
2022-08-22T09:22:14.455Z,28.30
2022-08-22T09:25:20.893Z,27.60
2022-08-22T09:28:02.909Z,27.10
2022-08-22T09:30:46.707Z,27.60
2022-08-22T09:33:28.168Z,27.30
2022-08-22T09:36:05.130Z,27.60
2022-08-22T09:38:48.268Z,27.20
2022-08-22T09:41:37.584Z,27.70
2022-08-22T09:44:16.492Z,28.40
2022-08-22T09:46:58.991Z,30.00
2022-08-22T09:49:46.616Z,30.20
2022-08-22T09:52:33.927Z,29.90
2022-08-22T09:55:16.068Z,29.70
2022-08-22T09:57:53.453Z,29.30
2022-08-22T10:00:26.105Z,29.60
2022-08-22T10:03:04.522Z,29.60
2022-08-22T10:05:43.831Z,29.90
2022-08-22T10:08:26.647Z,29.80
2022-08-22T10:11:15.537Z,28.70
2022-08-22T10:13:57.891Z,28.40
2022-08-22T10:17:01.395Z,26.90
2022-08-22T10:19:33.866Z,26.50
2022-08-22T10:22:20.287Z,27.00
2022-08-22T10:25:00.534Z,26.80
2022-08-22T10:27:44.202Z,26.40
2022-08-22T10:30:20.366Z,26.50
2022-08-22T10:33:00.816Z,26.60
2022-08-22T10:35:34.057Z,26.60
2022-08-22T10:38:10.562Z,26.70
2022-08-22T10:40:44.686Z,27.10
2022-08-22T10:43:22.215Z,27.30
2022-08-22T10:46:07.046Z,27.40
2022-08-22T10:48:48.301Z,27.80
2022-08-22T10:51:25.719Z,27.70
2022-08-22T10:54:28.364Z,27.60
2022-08-22T10:57:20.611Z,27.30
2022-08-22T10:59:58.453Z,27.30
2022-08-22T11:02:38.784Z,27.00
2022-08-22T11:05:23.769Z,27.30
2022-08-22T11:08:15.914Z,26.90
2022-08-22T11:11:01.264Z,26.90
2022-08-22T11:13:42.328Z,27.30
2022-08-22T11:16:24.209Z,28.10
2022-08-22T11:19:15.884Z,27.80
2022-08-22T11:21:56.871Z,27.20
2022-08-22T11:25:04.451Z,27.50
2022-08-22T11:27:42.230Z,27.20
2022-08-22T11:30:18.676Z,27.00
2022-08-22T11:33:22.311Z,26.90
2022-08-22T11:36:13.136Z,26.70
2022-08-22T11:38:54.156Z,26.20
2022-08-22T11:41:26.951Z,26.00
2022-08-22T11:44:03.670Z,26.20
2022-08-22T11:46:35.509Z,26.40
2022-08-22T11:49:34.618Z,26.80
2022-08-22T11:52:22.890Z,27.00
2022-08-22T11:55:10.064Z,26.70
2022-08-22T11:57:44.287Z,26.80
2022-08-22T12:00:27.901Z,26.50
2022-08-22T12:03:37.870Z,26.50
2022-08-22T12:06:29.958Z,26.40
2022-08-22T12:09:29.977Z,26.40
2022-08-22T12:12:14.965Z,26.90
2022-08-22T12:14:49.437Z,27.50
2022-08-22T12:17:55.780Z,27.60
2022-08-22T12:21:04.502Z,27.10
2022-08-22T12:23:55.504Z,26.80
2022-08-22T12:26:33.870Z,27.20
2022-08-22T12:29:27.455Z,27.20
2022-08-22T12:32:35.827Z,27.20
2022-08-22T12:35:30.085Z,27.40
2022-08-22T12:38:28.377Z,27.20
2022-08-22T12:41:28.322Z,26.70
2022-08-22T12:44:22.373Z,26.80
2022-08-22T12:47:05.672Z,26.80
2022-08-22T12:49:49.776Z,26.90
2022-08-22T12:52:44.426Z,27.10
2022-08-22T12:55:25.500Z,27.00
2022-08-22T12:58:04.100Z,27.10
2022-08-22T13:00:36.973Z,26.90
2022-08-22T13:03:09.595Z,26.70
2022-08-22T13:05:40.732Z,26.80
2022-08-22T13:08:17.608Z,26.80
2022-08-22T13:10:50.845Z,26.70
2022-08-22T13:13:36.439Z,26.60
2022-08-22T13:16:11.796Z,26.70
2022-08-22T13:18:46.750Z,26.90
2022-08-22T13:21:30.334Z,26.80
2022-08-22T13:24:10.360Z,26.40
2022-08-22T13:26:47.035Z,26.40
2022-08-22T13:29:26.991Z,26.70
2022-08-22T13:32:01.940Z,26.50
2022-08-22T13:34:43.443Z,26.50
2022-08-22T13:37:17.467Z,26.50
2022-08-22T13:39:52.575Z,26.60
2022-08-22T13:42:27.714Z,26.80
2022-08-22T13:45:02.465Z,27.40
2022-08-22T13:47:39.575Z,27.10
2022-08-22T13:50:14.995Z,26.90
2022-08-22T13:52:52.210Z,26.90
2022-08-22T13:55:31.784Z,27.20
2022-08-22T13:58:07.549Z,27.30
2022-08-22T14:01:05.449Z,27.10
2022-08-22T14:03:41.899Z,26.90
2022-08-22T14:06:36.857Z,26.90
2022-08-22T14:09:17.440Z,26.80
2022-08-22T14:12:12.113Z,26.90
2022-08-22T14:14:46.233Z,26.70
2022-08-22T14:17:20.793Z,26.80
2022-08-22T14:20:01.442Z,26.80
2022-08-22T14:22:35.814Z,26.90
2022-08-22T14:25:08.866Z,26.70
2022-08-22T14:27:43.928Z,26.70
2022-08-22T14:30:17.124Z,26.50
2022-08-22T14:32:50.801Z,26.50
2022-08-22T14:35:35.139Z,27.00
2022-08-22T14:38:27.358Z,27.00
2022-08-22T14:41:03.919Z,26.70
2022-08-22T14:43:49.926Z,26.50
2022-08-22T14:46:26.643Z,26.60
2022-08-22T14:49:16.119Z,26.50
2022-08-22T14:51:52.280Z,26.90
2022-08-22T14:54:23.584Z,26.90
2022-08-22T14:56:59.912Z,26.60
2022-08-22T14:59:46.150Z,26.50
2022-08-22T15:02:26.210Z,26.40
2022-08-22T15:04:56.544Z,26.50
2022-08-22T15:07:29.571Z,26.60
2022-08-22T15:10:03.569Z,26.70
2022-08-22T15:12:37.755Z,26.70
2022-08-22T15:15:11.404Z,26.80
2022-08-22T15:17:44.045Z,26.70
2022-08-22T15:20:27.884Z,26.90
2022-08-22T15:23:01.808Z,26.70
2022-08-22T15:25:34.155Z,26.60
2022-08-22T15:28:14.225Z,26.50
2022-08-22T15:30:49.127Z,26.50
2022-08-22T15:33:25.865Z,26.50
2022-08-22T15:36:07.903Z,26.40
2022-08-22T15:38:42.179Z,26.30
2022-08-22T15:41:39.840Z,26.10
2022-08-22T15:44:15.003Z,26.10
2022-08-22T15:47:11.569Z,26.20
2022-08-22T15:49:50.578Z,26.30
2022-08-22T15:52:26.139Z,26.30
2022-08-22T15:55:18.921Z,26.30
2022-08-22T15:58:00.464Z,26.30
2022-08-22T16:00:43.569Z,26.30
2022-08-22T16:03:24.438Z,26.50
2022-08-22T16:05:55.951Z,26.50
2022-08-22T16:08:32.814Z,26.40
2022-08-22T16:11:27.538Z,26.30
2022-08-22T16:14:21.395Z,26.50
2022-08-22T16:17:27.874Z,26.50
2022-08-22T16:20:52.911Z,26.30
2022-08-22T16:23:21.402Z,26.20
2022-08-22T16:26:11.084Z,26.20
2022-08-22T16:29:07.808Z,26.30
2022-08-22T16:31:39.265Z,26.20
2022-08-22T16:34:28.026Z,26.30
2022-08-22T16:37:42.057Z,26.20
2022-08-22T16:40:15.133Z,26.20
2022-08-22T16:42:46.441Z,26.30
2022-08-22T16:45:22.415Z,26.40
2022-08-22T16:47:58.620Z,26.40
2022-08-22T16:50:34.767Z,26.10
2022-08-22T16:53:08.605Z,26.00
2022-08-22T16:56:00.499Z,26.00
2022-08-22T16:58:57.855Z,25.90
2022-08-22T17:02:01.111Z,25.90
2022-08-22T17:04:37.473Z,25.80
2022-08-22T17:07:17.637Z,25.70
2022-08-22T17:10:12.535Z,25.80
2022-08-22T17:12:57.078Z,25.70
2022-08-22T17:15:35.314Z,25.70
2022-08-22T17:18:21.085Z,25.70
2022-08-22T17:20:55.847Z,25.70
2022-08-22T17:23:34.901Z,25.80
2022-08-22T17:26:22.380Z,25.60
2022-08-22T17:29:02.687Z,25.60
2022-08-22T17:31:39.277Z,25.50
2022-08-22T17:34:25.991Z,25.50
2022-08-22T17:37:11.247Z,25.40
2022-08-22T17:39:55.901Z,25.40
2022-08-22T17:43:08.799Z,25.30
2022-08-22T17:45:48.952Z,25.30
2022-08-22T17:48:21.401Z,25.20
2022-08-22T17:50:54.908Z,25.20
2022-08-22T17:53:34.019Z,25.10
2022-08-22T17:56:13.331Z,25.10
2022-08-22T17:58:46.738Z,25.00
2022-08-22T18:01:17.886Z,25.00
2022-08-22T18:03:53.103Z,25.00
2022-08-22T18:06:30.898Z,24.90
2022-08-22T18:09:18.042Z,24.90
2022-08-22T18:11:50.949Z,24.90
2022-08-22T18:14:30.723Z,24.70
2022-08-22T18:17:00.960Z,24.70
2022-08-22T18:19:43.345Z,24.60
2022-08-22T18:22:26.108Z,24.60
2022-08-22T18:24:58.838Z,24.50
2022-08-22T18:27:35.166Z,24.50
2022-08-22T18:30:16.080Z,24.40
2022-08-22T18:32:53.734Z,24.30
2022-08-22T18:35:28.800Z,24.30
2022-08-22T18:38:03.899Z,24.20
2022-08-22T18:40:50.989Z,24.20
2022-08-22T18:43:24.195Z,24.20
2022-08-22T18:46:03.878Z,24.10
2022-08-22T18:48:54.465Z,24.00
2022-08-22T18:51:30.411Z,23.90
2022-08-22T18:54:22.220Z,23.70
2022-08-22T18:56:54.712Z,23.60
2022-08-22T18:59:46.053Z,23.60
2022-08-22T19:02:55.845Z,23.70
2022-08-22T19:05:41.999Z,23.60
2022-08-22T19:08:40.633Z,23.40
2022-08-22T19:11:36.497Z,23.40
2022-08-22T19:14:36.021Z,23.30
2022-08-22T19:17:33.154Z,23.30
2022-08-22T19:20:27.798Z,23.20
2022-08-22T19:23:36.166Z,23.20
2022-08-22T19:26:29.687Z,23.20
2022-08-22T19:29:01.561Z,23.10
2022-08-22T19:31:49.137Z,23.10
2022-08-22T19:34:34.846Z,23.10
2022-08-22T19:37:32.435Z,23.00
2022-08-22T19:40:05.077Z,22.90
2022-08-22T19:42:40.234Z,22.80
2022-08-22T19:45:19.842Z,22.70
2022-08-22T19:47:59.875Z,22.60
2022-08-22T19:50:32.986Z,22.50
2022-08-22T19:53:32.881Z,22.50
2022-08-22T19:56:10.097Z,22.40
2022-08-22T19:58:54.052Z,22.50
2022-08-22T20:01:39.082Z,22.50
2022-08-22T20:04:20.731Z,22.50
2022-08-22T20:07:01.779Z,22.50
2022-08-22T20:09:39.526Z,22.50
2022-08-22T20:12:17.439Z,22.50
2022-08-22T20:14:48.547Z,22.50
2022-08-22T20:17:42.661Z,22.50
2022-08-22T20:20:35.489Z,22.50
2022-08-22T20:23:10.866Z,22.50
2022-08-22T20:25:48.704Z,22.60
2022-08-22T20:28:34.758Z,22.60
2022-08-22T20:31:10.591Z,22.60
2022-08-22T20:33:46.136Z,22.70
2022-08-22T20:36:28.325Z,22.70
2022-08-22T20:39:04.076Z,22.80
2022-08-22T20:41:36.032Z,22.80
2022-08-22T20:44:12.560Z,22.80
2022-08-22T20:46:58.356Z,22.70
2022-08-22T20:49:30.038Z,22.70
2022-08-22T20:52:00.935Z,22.70
2022-08-22T20:54:30.622Z,22.70
2022-08-22T20:57:01.905Z,22.70
2022-08-22T20:59:36.028Z,22.60
2022-08-22T21:02:26.992Z,22.60
2022-08-22T21:05:01.567Z,22.60
2022-08-22T21:07:33.115Z,22.60
2022-08-22T21:10:23.183Z,22.50
2022-08-22T21:13:13.267Z,22.50
2022-08-22T21:15:43.918Z,22.40
2022-08-22T21:18:14.711Z,22.30
2022-08-22T21:20:42.892Z,22.40
2022-08-22T21:23:15.457Z,22.30
2022-08-22T21:25:59.828Z,22.30
2022-08-22T21:28:31.167Z,22.20
2022-08-22T21:31:01.633Z,22.20
2022-08-22T21:33:31.255Z,22.30
2022-08-22T21:36:00.973Z,22.30
2022-08-22T21:38:29.577Z,22.30
2022-08-22T21:41:05.346Z,22.30
2022-08-22T21:43:36.882Z,22.20
2022-08-22T21:46:05.918Z,22.20
2022-08-22T21:48:40.313Z,22.20
2022-08-22T21:51:42.694Z,22.20
2022-08-22T21:54:41.738Z,22.20
2022-08-22T21:57:19.624Z,22.20
2022-08-22T21:59:51.894Z,22.10
2022-08-22T22:02:36.789Z,22.10
2022-08-22T22:05:10.390Z,22.10
2022-08-22T22:07:41.317Z,22.00
2022-08-22T22:10:11.726Z,22.00
2022-08-22T22:12:41.763Z,22.00
2022-08-22T22:15:13.824Z,22.00
2022-08-22T22:17:42.063Z,21.90
2022-08-22T22:20:12.898Z,21.90
2022-08-22T22:22:46.073Z,21.80
2022-08-22T22:25:38.997Z,21.80
2022-08-22T22:28:11.503Z,21.80
2022-08-22T22:30:39.706Z,21.80
2022-08-22T22:33:07.929Z,21.70
2022-08-22T22:35:39.086Z,21.70
2022-08-22T22:38:07.742Z,21.80
2022-08-22T22:40:36.606Z,21.80
2022-08-22T22:43:05.202Z,21.70
2022-08-22T22:45:33.397Z,21.70
2022-08-22T22:48:01.621Z,21.70
2022-08-22T22:50:29.773Z,21.60
2022-08-22T22:52:59.262Z,21.60
2022-08-22T22:55:27.580Z,21.50
2022-08-22T22:57:59.244Z,21.50
2022-08-22T23:00:30.501Z,21.40
2022-08-22T23:06:50.460Z,21.40
2022-08-22T23:09:19.877Z,21.30
2022-08-22T23:11:49.844Z,21.20
2022-08-22T23:14:18.011Z,21.10
2022-08-22T23:16:46.188Z,21.10
2022-08-22T23:19:17.348Z,21.10
2022-08-22T23:21:48.050Z,21.10
2022-08-22T23:24:17.268Z,21.10
2022-08-22T23:26:46.692Z,21.10
2022-08-22T23:29:16.028Z,21.00
2022-08-22T23:31:51.168Z,21.00
2022-08-22T23:34:22.878Z,21.00
2022-08-22T23:36:54.005Z,20.90
2022-08-22T23:39:24.414Z,20.90
2022-08-22T23:41:54.209Z,20.90
2022-08-22T23:44:25.022Z,20.80
2022-08-22T23:46:53.704Z,20.80
2022-08-22T23:49:22.612Z,20.80
2022-08-22T23:51:51.119Z,20.60
2022-08-22T23:54:20.188Z,20.60
2022-08-22T23:56:51.905Z,20.50
2022-08-22T23:59:25.029Z,20.50
